createdAt,value
2018-09-27T02:45:16.726Z,2.76
2018-09-27T02:47:45.893Z,2.74
2018-09-27T02:50:14.811Z,2.73
2018-09-27T02:52:43.789Z,2.70
2018-09-27T02:55:12.769Z,2.68
2018-09-27T02:57:41.709Z,2.37
2018-09-27T03:00:10.651Z,2.71
2018-09-27T03:02:39.579Z,2.70
2018-09-27T03:05:08.541Z,2.70
2018-09-27T03:07:37.458Z,2.67
2018-09-27T03:10:06.687Z,2.62
2018-09-27T03:12:35.625Z,2.62
2018-09-27T03:15:04.767Z,2.64
2018-09-27T03:17:33.729Z,2.64
2018-09-27T03:20:02.656Z,2.60
2018-09-27T03:22:31.594Z,2.57
2018-09-27T03:25:00.554Z,2.54
2018-09-27T03:27:29.478Z,2.51
2018-09-27T03:29:58.417Z,2.44
2018-09-27T03:32:27.438Z,2.40
2018-09-27T03:34:56.362Z,2.40
2018-09-27T03:37:25.339Z,2.40
2018-09-27T03:39:54.299Z,2.37
2018-09-27T03:42:23.215Z,2.37
2018-09-27T03:44:52.156Z,2.38
2018-09-27T03:47:21.078Z,2.34
2018-09-27T03:49:50.005Z,2.28
2018-09-27T03:52:18.946Z,2.28
2018-09-27T03:54:48.042Z,2.25
2018-09-27T03:57:16.993Z,2.20
2018-09-27T03:59:45.934Z,2.20
2018-09-27T04:02:14.867Z,2.19
2018-09-27T04:04:43.794Z,2.15
2018-09-27T04:07:12.729Z,2.14
2018-09-27T04:09:41.667Z,2.13
2018-09-27T04:12:10.639Z,2.13
2018-09-27T04:14:39.553Z,2.16
2018-09-27T04:17:08.623Z,2.19
2018-09-27T04:19:37.587Z,2.25
2018-09-27T04:22:06.606Z,2.28
2018-09-27T04:24:35.530Z,2.35
2018-09-27T04:27:04.519Z,2.40
2018-09-27T04:29:33.463Z,2.41
2018-09-27T04:32:02.420Z,2.45
2018-09-27T04:34:31.407Z,2.53
2018-09-27T04:37:04.546Z,2.60
2018-09-27T04:39:33.482Z,2.69
2018-09-27T04:42:02.431Z,2.81
2018-09-27T04:44:31.417Z,2.90
2018-09-27T04:47:00.337Z,3.11
2018-09-27T04:49:29.250Z,3.21
2018-09-27T04:51:58.277Z,3.31
2018-09-27T04:54:27.205Z,3.45
2018-09-27T04:56:56.108Z,3.70
2018-09-27T04:59:25.019Z,3.93
2018-09-27T05:01:53.942Z,4.15
2018-09-27T05:04:22.853Z,4.44
2018-09-27T05:06:51.829Z,4.81
2018-09-27T05:09:20.734Z,5.18
2018-09-27T05:11:49.649Z,5.35
2018-09-27T05:14:18.651Z,5.56
2018-09-27T05:16:47.579Z,5.73
2018-09-27T05:19:16.554Z,5.86
2018-09-27T05:21:45.657Z,6.02
2018-09-27T05:24:14.509Z,6.28
2018-09-27T05:26:43.430Z,6.39
2018-09-27T05:29:12.435Z,6.67
2018-09-27T05:31:41.363Z,6.84
2018-09-27T05:34:10.302Z,7.14
2018-09-27T05:36:39.270Z,7.38
2018-09-27T05:39:09.421Z,7.59
2018-09-27T05:41:38.361Z,7.62
2018-09-27T05:44:07.545Z,7.77
2018-09-27T05:46:36.474Z,7.84
2018-09-27T05:49:05.415Z,8.01
2018-09-27T05:51:34.400Z,8.17
2018-09-27T05:54:03.336Z,8.25
2018-09-27T05:56:32.269Z,8.32
2018-09-27T05:59:01.210Z,8.51
2018-09-27T06:01:30.210Z,8.52
2018-09-27T06:03:59.111Z,8.56
2018-09-27T06:06:28.019Z,8.64
2018-09-27T06:08:56.970Z,8.79
2018-09-27T06:11:25.885Z,8.93
2018-09-27T06:13:54.887Z,8.92
2018-09-27T06:16:23.804Z,8.81
2018-09-27T06:18:52.731Z,8.98
2018-09-27T06:21:21.670Z,9.16
2018-09-27T06:23:50.581Z,9.28
2018-09-27T06:26:19.526Z,9.45
2018-09-27T06:28:48.459Z,9.57
2018-09-27T06:31:17.489Z,9.72
2018-09-27T06:33:46.411Z,9.88
2018-09-27T06:36:15.440Z,10.17
2018-09-27T06:38:44.535Z,10.27
2018-09-27T06:41:13.433Z,10.16
2018-09-27T06:43:42.504Z,10.10
2018-09-27T06:46:11.445Z,10.02
2018-09-27T06:48:40.572Z,10.22
2018-09-27T06:51:09.446Z,10.51
2018-09-27T06:53:38.462Z,10.70
2018-09-27T06:56:07.639Z,10.80
2018-09-27T06:58:36.648Z,10.87
2018-09-27T07:01:05.582Z,11.00
2018-09-27T07:03:34.526Z,11.03
2018-09-27T07:06:03.473Z,11.27
2018-09-27T07:08:32.483Z,11.38
2018-09-27T07:11:01.387Z,11.33
2018-09-27T07:13:30.305Z,11.52
2018-09-27T07:15:59.286Z,11.66
2018-09-27T07:18:28.202Z,11.83
2018-09-27T07:20:57.145Z,11.98
2018-09-27T07:23:26.088Z,12.08
2018-09-27T07:25:55.024Z,12.21
2018-09-27T07:28:23.983Z,12.34
2018-09-27T07:30:52.930Z,12.51
2018-09-27T07:33:22.137Z,12.66
2018-09-27T07:35:51.077Z,12.76
2018-09-27T07:38:20.125Z,12.85
2018-09-27T07:40:49.071Z,12.96
2018-09-27T07:43:17.993Z,12.91
2018-09-27T07:45:46.944Z,12.83
2018-09-27T07:48:16.049Z,12.79
2018-09-27T07:50:45.002Z,12.91
2018-09-27T07:53:13.943Z,12.99
2018-09-27T07:55:42.882Z,13.07
2018-09-27T07:58:11.825Z,13.30
2018-09-27T08:00:40.856Z,13.34
2018-09-27T08:03:09.910Z,13.38
2018-09-27T08:05:39.056Z,13.41
2018-09-27T08:08:08.291Z,13.61
2018-09-27T08:10:37.218Z,13.79
2018-09-27T08:13:06.181Z,13.93
2018-09-27T08:15:35.129Z,14.14
2018-09-27T08:18:04.146Z,14.38
2018-09-27T08:20:33.189Z,14.57
2018-09-27T08:23:02.225Z,14.61
2018-09-27T08:25:31.190Z,14.55
2018-09-27T08:28:00.117Z,14.41
2018-09-27T08:30:29.090Z,14.46
2018-09-27T08:32:58.075Z,14.68
2018-09-27T08:35:27.021Z,14.70
2018-09-27T08:37:55.976Z,14.69
2018-09-27T08:40:24.951Z,14.67
2018-09-27T08:42:53.886Z,14.82
2018-09-27T08:45:23.154Z,15.08
2018-09-27T08:47:51.890Z,15.36
2018-09-27T08:50:20.824Z,15.40
2018-09-27T08:52:49.806Z,15.53
2018-09-27T08:55:18.776Z,15.80
2018-09-27T08:57:47.770Z,15.91
2018-09-27T09:00:16.703Z,15.78
2018-09-27T09:02:45.705Z,15.80
2018-09-27T09:05:14.695Z,15.77
2018-09-27T09:07:43.714Z,15.76
2018-09-27T09:10:12.717Z,15.75
2018-09-27T09:12:41.674Z,15.79
2018-09-27T09:15:10.880Z,15.70
2018-09-27T09:17:39.822Z,15.95
2018-09-27T09:20:08.950Z,15.99
2018-09-27T09:22:37.890Z,16.12
2018-09-27T09:25:06.863Z,16.32
2018-09-27T09:27:35.854Z,16.35
2018-09-27T09:30:04.821Z,16.33
2018-09-27T09:32:33.778Z,16.46
2018-09-27T09:35:02.779Z,16.40
2018-09-27T09:37:31.803Z,16.28
2018-09-27T09:40:00.730Z,16.29
2018-09-27T09:42:29.761Z,16.62
2018-09-27T09:44:58.761Z,16.83
2018-09-27T09:47:28.063Z,16.99
2018-09-27T09:49:57.017Z,17.44
2018-09-27T09:52:25.993Z,17.76
2018-09-27T09:54:54.941Z,18.02
2018-09-27T09:57:23.974Z,18.16
2018-09-27T09:59:52.911Z,18.08
2018-09-27T10:02:21.891Z,18.14
2018-09-27T10:04:50.872Z,18.13
2018-09-27T10:07:19.798Z,18.39
2018-09-27T10:09:48.793Z,18.53
2018-09-27T10:12:17.742Z,18.72
2018-09-27T10:14:46.746Z,18.81
2018-09-27T10:17:15.694Z,19.00
2018-09-27T10:19:44.709Z,18.95
2018-09-27T10:22:13.704Z,18.74
2018-09-27T10:24:42.651Z,18.64
2018-09-27T10:27:11.610Z,18.41
2018-09-27T10:29:40.563Z,18.40
2018-09-27T10:32:09.598Z,18.49
2018-09-27T10:34:38.543Z,18.65
2018-09-27T10:37:07.558Z,18.81
2018-09-27T10:39:36.503Z,18.89
2018-09-27T10:42:05.490Z,19.07
2018-09-27T10:44:34.441Z,19.26
2018-09-27T10:47:03.674Z,19.41
2018-09-27T10:49:32.707Z,19.46
2018-09-27T10:52:01.645Z,19.33
2018-09-27T10:54:30.602Z,19.21
2018-09-27T10:56:59.580Z,19.31
2018-09-27T10:59:28.523Z,19.87
2018-09-27T11:01:57.583Z,20.01
2018-09-27T11:04:26.484Z,20.91
2018-09-27T11:06:55.413Z,21.96
2018-09-27T11:09:24.357Z,22.92
2018-09-27T11:11:53.282Z,24.09
2018-09-27T11:14:22.245Z,24.21
2018-09-27T11:16:51.185Z,24.75
2018-09-27T11:19:20.151Z,24.59
2018-09-27T11:21:49.110Z,24.59
2018-09-27T11:24:18.213Z,24.58
2018-09-27T11:26:47.148Z,24.82
2018-09-27T11:29:21.349Z,25.85
2018-09-27T11:31:55.465Z,26.02
2018-09-27T11:34:24.445Z,26.79
2018-09-27T11:36:53.397Z,26.79
2018-09-27T11:39:22.314Z,27.50
2018-09-27T11:41:51.251Z,28.14
2018-09-27T11:44:20.196Z,29.16
2018-09-27T11:46:49.146Z,29.41
2018-09-27T11:49:18.170Z,29.41
2018-09-27T11:51:47.087Z,29.31
2018-09-27T11:54:16.028Z,28.04
2018-09-27T11:56:45.115Z,27.78
2018-09-27T11:59:14.058Z,27.65
2018-09-27T12:01:43.141Z,27.86
2018-09-27T12:04:11.999Z,28.63
2018-09-27T12:06:40.985Z,29.01
2018-09-27T12:09:11.789Z,29.47
2018-09-27T12:11:40.852Z,29.70
2018-09-27T12:14:10.578Z,30.08
2018-09-27T12:16:39.571Z,29.37
2018-09-27T12:19:08.562Z,29.36
2018-09-27T12:21:37.596Z,27.90
2018-09-27T12:24:06.590Z,26.35
2018-09-27T12:26:35.647Z,24.52
2018-09-27T12:29:04.618Z,22.89
2018-09-27T12:31:33.678Z,21.63
2018-09-27T12:34:02.726Z,20.89
2018-09-27T12:36:31.680Z,20.10
2018-09-27T12:39:00.631Z,19.61
2018-09-27T12:41:29.636Z,19.13
2018-09-27T12:43:58.587Z,18.84
2018-09-27T12:46:27.559Z,18.54
2018-09-27T12:48:56.507Z,18.18
2018-09-27T12:51:25.548Z,18.13
2018-09-27T12:53:54.639Z,18.08
2018-09-27T12:56:23.569Z,17.78
2018-09-27T12:58:52.550Z,17.77
2018-09-27T13:01:21.522Z,17.79
2018-09-27T13:03:50.509Z,17.68
2018-09-27T13:06:19.418Z,17.60
2018-09-27T13:08:48.441Z,17.48
2018-09-27T13:11:17.319Z,17.39
2018-09-27T13:13:46.253Z,17.30
2018-09-27T13:16:15.203Z,17.26
2018-09-27T13:18:44.127Z,17.20
2018-09-27T13:21:13.085Z,17.16
2018-09-27T13:23:42.011Z,17.11
2018-09-27T13:26:11.014Z,17.09
2018-09-27T13:28:40.059Z,17.08
2018-09-27T13:31:09.194Z,17.09
2018-09-27T13:33:38.107Z,17.07
2018-09-27T13:36:07.192Z,16.98
2018-09-27T13:38:36.145Z,16.90
2018-09-27T13:41:05.088Z,16.95
2018-09-27T13:43:34.050Z,16.81
2018-09-27T13:46:03.011Z,16.82
2018-09-27T13:48:32.034Z,16.85
2018-09-27T13:51:00.984Z,16.85
2018-09-27T13:53:29.898Z,16.84
2018-09-27T13:55:58.968Z,16.88
2018-09-27T13:58:27.918Z,16.87
2018-09-27T14:00:56.864Z,16.87
2018-09-27T14:03:25.837Z,16.72
2018-09-27T14:05:54.757Z,16.64
2018-09-27T14:08:23.684Z,16.57
2018-09-27T14:10:52.674Z,16.61
2018-09-27T14:13:21.629Z,16.49
2018-09-27T14:15:50.712Z,16.47
2018-09-27T14:18:19.687Z,16.42
2018-09-27T14:23:51.515Z,16.43
2018-09-27T14:26:20.455Z,16.40
2018-09-27T14:28:49.410Z,16.41
2018-09-27T14:31:18.435Z,16.37
2018-09-27T14:33:47.426Z,16.20
2018-09-27T14:36:16.550Z,16.15
2018-09-27T14:38:45.560Z,16.05
2018-09-27T14:41:14.548Z,16.02
2018-09-27T14:43:43.503Z,16.00
2018-09-27T14:46:12.466Z,15.99
2018-09-27T14:48:41.474Z,15.98
2018-09-27T14:51:10.459Z,15.96
2018-09-27T14:53:39.500Z,15.90
2018-09-27T14:56:08.436Z,15.90
2018-09-27T14:58:37.465Z,15.79
2018-09-27T15:01:06.399Z,15.77
2018-09-27T15:03:35.355Z,15.68
2018-09-27T15:06:04.283Z,15.59
2018-09-27T15:08:33.250Z,15.49
2018-09-27T15:11:02.186Z,15.42
2018-09-27T15:13:31.142Z,15.34
2018-09-27T15:16:00.066Z,15.30
2018-09-27T15:18:29.062Z,15.23
2018-09-27T15:20:58.002Z,15.19
2018-09-27T15:23:27.067Z,15.15
2018-09-27T15:26:02.260Z,15.05
2018-09-27T15:28:31.283Z,14.95
2018-09-27T15:31:00.215Z,14.88
2018-09-27T15:33:29.158Z,14.78
2018-09-27T15:35:58.175Z,14.66
2018-09-27T15:38:27.195Z,14.69
2018-09-27T15:40:56.244Z,14.65
2018-09-27T15:43:25.199Z,14.55
2018-09-27T15:45:54.256Z,14.45
2018-09-27T16:03:22.273Z,13.60
2018-09-27T16:05:51.225Z,13.44
2018-09-27T16:08:20.239Z,13.25
2018-09-27T16:10:49.192Z,13.07
2018-09-27T16:13:18.130Z,12.91
2018-09-27T16:15:47.110Z,12.72
2018-09-27T16:18:16.054Z,12.52
2018-09-27T16:20:45.038Z,12.33
2018-09-27T16:23:13.989Z,12.13
2018-09-27T16:25:43.075Z,11.99
2018-09-27T16:28:12.014Z,11.84
2018-09-27T16:30:40.991Z,11.72
2018-09-27T16:33:10.685Z,11.53
2018-09-27T16:35:39.670Z,11.41
2018-09-27T16:41:11.233Z,11.17
2018-09-27T16:43:40.183Z,11.08
2018-09-27T16:46:09.427Z,10.96
2018-09-27T16:48:38.470Z,10.86
2018-09-27T16:51:07.423Z,10.76
2018-09-27T16:53:36.979Z,10.66
2018-09-27T16:56:05.931Z,10.57
2018-09-27T16:58:34.891Z,10.47
2018-09-27T17:01:03.870Z,10.38
2018-09-27T17:03:32.822Z,10.31
2018-09-27T17:06:01.808Z,10.21
2018-09-27T17:08:30.851Z,10.10
2018-09-27T17:10:59.841Z,10.03
2018-09-27T17:13:28.795Z,9.95
2018-09-27T17:15:57.844Z,9.89
2018-09-27T17:18:26.784Z,9.78
2018-09-27T17:20:55.730Z,9.70
2018-09-27T17:23:24.723Z,9.63
2018-09-27T17:25:53.682Z,9.53
2018-09-27T17:28:22.675Z,9.51
2018-09-27T17:30:51.656Z,9.49
2018-09-27T17:33:20.775Z,9.41
2018-09-27T17:35:50.049Z,9.36
2018-09-27T17:38:19.236Z,9.29
2018-09-27T17:40:48.179Z,9.24
2018-09-27T17:43:17.203Z,9.20
2018-09-27T17:45:46.171Z,9.14
2018-09-27T17:48:15.133Z,9.11
2018-09-27T17:50:44.126Z,9.06
2018-09-27T17:53:13.239Z,9.02
2018-09-27T17:55:42.143Z,8.98
2018-09-27T17:58:11.083Z,8.92
2018-09-27T18:00:40.098Z,8.90
2018-09-27T18:03:09.056Z,8.89
2018-09-27T18:05:38.093Z,8.86
2018-09-27T18:08:07.146Z,8.86
2018-09-27T18:10:36.205Z,8.82
2018-09-27T18:13:05.135Z,8.78
2018-09-27T18:15:34.083Z,8.75
2018-09-27T18:18:03.080Z,8.73
2018-09-27T18:20:32.007Z,8.75
2018-09-27T18:23:00.999Z,8.77
2018-09-27T18:25:29.962Z,8.79
2018-09-27T18:27:58.972Z,8.80
2018-09-27T18:30:27.919Z,8.78
2018-09-27T18:32:56.845Z,8.78
2018-09-27T18:35:25.855Z,8.82
2018-09-27T18:37:54.890Z,8.81
2018-09-27T18:40:23.839Z,8.82
2018-09-27T18:42:52.822Z,8.83
2018-09-27T18:45:21.834Z,8.86
2018-09-27T18:47:50.787Z,8.86
2018-09-27T18:50:19.752Z,8.84
2018-09-27T18:52:48.726Z,8.84
2018-09-27T18:55:17.675Z,8.88
2018-09-27T18:57:46.695Z,8.91
2018-09-27T19:00:15.649Z,8.92
2018-09-27T19:02:44.698Z,8.95
2018-09-27T19:05:13.647Z,8.98
2018-09-27T19:07:42.574Z,9.07
2018-09-27T19:10:11.625Z,9.10
2018-09-27T19:12:40.603Z,9.10
2018-09-27T19:15:09.648Z,9.12
2018-09-27T19:17:38.585Z,9.16
2018-09-27T19:20:07.659Z,9.16
2018-09-27T19:22:36.653Z,9.19
2018-09-27T19:25:05.825Z,9.20
2018-09-27T19:27:34.762Z,9.18
2018-09-27T19:30:03.748Z,9.20
2018-09-27T19:32:32.702Z,9.27
2018-09-27T19:35:01.650Z,9.29
2018-09-27T19:37:30.624Z,9.33
2018-09-27T19:39:59.569Z,9.34
2018-09-27T19:42:28.802Z,9.36
2018-09-27T19:44:57.845Z,9.40
2018-09-27T19:47:26.849Z,9.40
2018-09-27T19:49:56.585Z,9.39
2018-09-27T19:52:25.553Z,9.35
2018-09-27T19:54:54.537Z,9.38
2018-09-27T19:57:23.472Z,9.40
2018-09-27T19:59:52.446Z,9.43
2018-09-27T20:02:21.383Z,9.44
2018-09-27T20:04:50.336Z,9.41
2018-09-27T20:07:19.288Z,9.44
2018-09-27T20:09:48.294Z,9.47
2018-09-27T20:12:17.278Z,9.47
2018-09-27T20:14:46.239Z,9.48
2018-09-27T20:17:15.239Z,9.54
2018-09-27T20:19:44.207Z,9.55
2018-09-27T20:22:13.234Z,9.58
2018-09-27T20:24:42.164Z,9.65
2018-09-27T20:27:11.787Z,9.66
2018-09-27T20:29:40.931Z,9.64
2018-09-27T20:32:10.032Z,9.60
2018-09-27T20:34:39.156Z,9.55
2018-09-27T20:37:08.046Z,9.63
2018-09-27T20:39:37.025Z,9.64
2018-09-27T20:42:05.963Z,9.70
2018-09-27T20:44:34.950Z,9.75
2018-09-27T20:47:03.889Z,9.89
2018-09-27T20:49:32.869Z,9.97
2018-09-27T20:52:01.808Z,10.04
2018-09-27T20:54:30.860Z,10.11
2018-09-27T20:56:59.811Z,10.05
2018-09-27T20:59:28.783Z,10.03
2018-09-27T21:01:57.733Z,10.06
2018-09-27T21:04:26.686Z,10.03
2018-09-27T21:06:55.640Z,9.97
2018-09-27T21:09:24.582Z,9.98
2018-09-27T21:11:53.561Z,9.99
2018-09-27T21:14:22.533Z,9.92
2018-09-27T21:16:51.542Z,9.81
2018-09-27T21:19:20.535Z,9.73
2018-09-27T21:21:49.447Z,9.60
2018-09-27T21:24:18.391Z,9.33
2018-09-27T21:26:47.307Z,9.13
2018-09-27T21:29:16.250Z,8.99
2018-09-27T21:31:45.182Z,8.86
2018-09-27T21:34:14.164Z,8.62
2018-09-27T21:36:43.140Z,8.40
2018-09-27T21:39:12.184Z,8.20
2018-09-27T21:41:41.113Z,8.02
2018-09-27T21:44:10.047Z,7.84
2018-09-27T21:46:38.995Z,7.76
2018-09-27T21:49:08.002Z,7.71
2018-09-27T21:51:36.954Z,7.67
2018-09-27T21:54:06.010Z,7.62
2018-09-27T21:56:34.993Z,7.59
2018-09-27T21:59:03.950Z,7.54
2018-09-27T22:01:32.907Z,7.50
2018-09-27T22:04:02.720Z,7.48
2018-09-27T22:06:31.671Z,7.46
2018-09-27T22:09:00.631Z,7.48
2018-09-27T22:11:29.549Z,7.50
2018-09-27T22:13:58.497Z,7.52
2018-09-27T22:16:27.448Z,7.51
2018-09-27T22:18:56.397Z,7.45
2018-09-27T22:21:25.348Z,7.40
2018-09-27T22:23:54.402Z,7.30
2018-09-27T22:26:23.330Z,7.23
2018-09-27T22:28:52.267Z,7.20
2018-09-27T22:31:21.210Z,7.12
2018-09-27T22:33:50.150Z,7.09
2018-09-27T22:36:19.141Z,7.04
2018-09-27T22:38:48.079Z,6.98
2018-09-27T22:41:17.074Z,6.90
2018-09-27T22:43:46.054Z,6.84
2018-09-27T22:46:15.055Z,6.80
2018-09-27T22:48:44.012Z,6.75
2018-09-27T22:51:12.976Z,6.73
2018-09-27T22:53:41.982Z,6.69
2018-09-27T22:56:10.931Z,6.62
2018-09-27T22:58:39.889Z,6.59
2018-09-27T23:01:08.861Z,6.52
2018-09-27T23:03:37.926Z,6.54
2018-09-27T23:06:06.854Z,6.52
2018-09-27T23:08:35.872Z,6.48
2018-09-27T23:11:04.815Z,6.44
2018-09-27T23:13:33.735Z,6.41
2018-09-27T23:16:02.725Z,6.38
2018-09-27T23:18:31.671Z,6.31
2018-09-27T23:21:00.759Z,6.36
2018-09-27T23:23:29.698Z,6.36
2018-09-27T23:25:58.738Z,6.36
2018-09-27T23:28:27.668Z,6.34
2018-09-27T23:30:56.606Z,6.39
2018-09-27T23:33:25.618Z,6.42
2018-09-27T23:35:54.554Z,6.46
2018-09-27T23:38:23.512Z,6.47
2018-09-27T23:40:52.505Z,6.53
2018-09-27T23:43:21.483Z,6.56
2018-09-27T23:45:50.416Z,6.60
2018-09-27T23:48:19.436Z,6.64
2018-09-27T23:50:48.374Z,6.60
2018-09-27T23:53:17.307Z,6.58
2018-09-27T23:55:46.253Z,6.53
2018-09-27T23:58:15.194Z,6.43
